sensor_id;sensor_type;location;lat;lon;timestamp;noise_LAeq;noise_LA_min;noise_LA_max;noise_LA01;noise_LA95
46584;Laerm;32309;48.858;8.252;2023-03-20T00:00:55;825.21;0.00;18494647683753925093697034753859.04;;
46584;Laerm;32309;48.858;8.252;2023-03-20T00:02:56;42.23;38.37;45.77;;
46584;Laerm;32309;48.858;8.252;2023-03-20T00:04:56;41.68;38.67;44.03;;
46584;Laerm;32309;48.858;8.252;2023-03-20T00:06:56;42.02;39.21;45.01;;
46584;Laerm;32309;48.858;8.252;2023-03-20T00:08:57;42.13;38.21;44.94;;
46584;Laerm;32309;48.858;8.252;2023-03-20T00:10:57;41.44;38.05;44.03;;
46584;Laerm;32309;48.858;8.252;2023-03-20T00:12:58;41.69;38.21;44.15;;
46584;Laerm;32309;48.858;8.252;2023-03-20T00:15:01;41.64;38.52;44.76;;
46584;Laerm;32309;48.858;8.252;2023-03-20T00:17:09;41.85;38.67;45.04;;
46584;Laerm;32309;48.858;8.252;2023-03-20T00:19:23;41.53;38.52;46.71;;
46584;Laerm;32309;48.858;8.252;2023-03-20T00:21:25;41.35;37.88;44.43;;
46584;Laerm;32309;48.858;8.252;2023-03-20T00:23:25;41.95;38.67;46.07;;
46584;Laerm;32309;48.858;8.252;2023-03-20T00:25:26;42.15;38.21;47.96;;
46584;Laerm;32309;48.858;8.252;2023-03-20T00:29:29;42.05;38.21;52.07;;
46584;Laerm;32309;48.858;8.252;2023-03-20T00:33:32;41.76;38.18;44.62;;
46584;Laerm;32309;48.858;8.252;2023-03-20T00:37:33;41.81;37.52;45.57;;
46584;Laerm;32309;48.858;8.252;2023-03-20T00:39:34;42.12;37.70;54.25;;
46584;Laerm;32309;48.858;8.252;2023-03-20T00:43:35;42.80;39.70;48.96;;
46584;Laerm;32309;48.858;8.252;2023-03-20T00:45:35;42.13;38.52;50.95;;
46584;Laerm;32309;48.858;8.252;2023-03-20T00:47:37;41.79;38.37;45.17;;
46584;Laerm;32309;48.858;8.252;2023-03-20T00:49:40;41.88;39.58;44.51;;
46584;Laerm;32309;48.858;8.252;2023-03-20T00:51:40;42.22;38.81;47.91;;
46584;Laerm;32309;48.858;8.252;2023-03-20T00:53:41;41.58;38.05;45.36;;
46584;Laerm;32309;48.858;8.252;2023-03-20T00:55:41;41.88;38.37;45.72;;
46584;Laerm;32309;48.858;8.252;2023-03-20T00:59:55;42.12;37.52;45.54;;
46584;Laerm;32309;48.858;8.252;2023-03-20T01:01:58;41.79;37.70;45.11;;
46584;Laerm;32309;48.858;8.252;2023-03-20T01:03:59;43.06;38.52;67.79;;
46584;Laerm;32309;48.858;8.252;2023-03-20T01:05:59;42.73;38.81;64.16;;
46584;Laerm;32309;48.858;8.252;2023-03-20T01:07:59;42.53;39.11;53.38;;
46584;Laerm;32309;48.858;8.252;2023-03-20T01:10:00;41.66;38.37;46.05;;
46584;Laerm;32309;48.858;8.252;2023-03-20T01:12:01;41.25;37.52;43.99;;
46584;Laerm;32309;48.858;8.252;2023-03-20T01:14:03;41.84;38.05;56.84;;
46584;Laerm;32309;48.858;8.252;2023-03-20T01:18:04;41.65;37.52;44.65;;
46584;Laerm;32309;48.858;8.252;2023-03-20T01:20:12;41.76;37.52;45.36;;
46584;Laerm;32309;48.858;8.252;2023-03-20T01:22:14;41.85;38.05;45.97;;
46584;Laerm;32309;48.858;8.252;2023-03-20T01:24:14;42.18;38.52;45.33;;
46584;Laerm;32309;48.858;8.252;2023-03-20T01:26:31;41.89;37.88;44.47;;
46584;Laerm;32309;48.858;8.252;2023-03-20T01:28:33;41.40;37.12;45.17;;
46584;Laerm;32309;48.858;8.252;2023-03-20T01:32:33;42.62;37.70;68.36;;
46584;Laerm;32309;48.858;8.252;2023-03-20T01:34:33;41.59;36.91;57.07;;
46584;Laerm;32309;48.858;8.252;2023-03-20T01:36:35;41.83;36.45;53.80;;
46584;Laerm;32309;48.858;8.252;2023-03-20T01:38:36;42.48;39.70;45.89;;
46584;Laerm;32309;48.858;8.252;2023-03-20T01:42:52;41.78;37.88;51.08;;
46584;Laerm;32309;48.858;8.252;2023-03-20T01:44:53;42.10;38.37;45.07;;
46584;Laerm;32309;48.858;8.252;2023-03-20T01:55:29;42.24;39.34;48.84;;
46584;Laerm;32309;48.858;8.252;2023-03-20T01:57:30;42.43;39.08;61.97;;
46584;Laerm;32309;48.858;8.252;2023-03-20T01:59:33;42.04;38.81;49.14;;
46584;Laerm;32309;48.858;8.252;2023-03-20T02:03:36;44.17;39.46;58.83;;
46584;Laerm;32309;48.858;8.252;2023-03-20T02:05:37;42.23;39.46;46.76;;
46584;Laerm;32309;48.858;8.252;2023-03-20T02:07:38;42.70;39.08;56.26;;
46584;Laerm;32309;48.858;8.252;2023-03-20T02:09:38;42.17;38.81;44.97;;
46584;Laerm;32309;48.858;8.252;2023-03-20T02:11:39;41.83;38.37;44.80;;
46584;Laerm;32309;48.858;8.252;2023-03-20T02:25:09;42.44;39.08;46.84;;
46584;Laerm;32309;48.858;8.252;2023-03-20T02:27:29;42.86;40.33;45.07;;
46584;Laerm;32309;48.858;8.252;2023-03-20T02:29:55;42.21;39.08;44.90;;
46584;Laerm;32309;48.858;8.252;2023-03-20T02:40:04;42.03;39.21;45.94;;
46584;Laerm;32309;48.858;8.252;2023-03-20T02:42:18;41.95;39.08;48.84;;
46584;Laerm;32309;48.858;8.252;2023-03-20T02:44:36;43.06;39.81;50.23;;
46584;Laerm;32309;48.858;8.252;2023-03-20T02:49:18;42.14;39.81;44.23;;
46584;Laerm;32309;48.858;8.252;2023-03-20T02:53:51;42.80;38.21;50.77;;
46584;Laerm;32309;48.858;8.252;2023-03-20T02:58:59;42.23;39.08;46.76;;
46584;Laerm;32309;48.858;8.252;2023-03-20T03:00:32;42.48;39.92;45.14;;
46584;Laerm;32309;48.858;8.252;2023-03-20T03:02:39;42.84;40.62;45.99;;
46584;Laerm;32309;48.858;8.252;2023-03-20T03:04:49;42.92;40.18;45.31;;
46584;Laerm;32309;48.858;8.252;2023-03-20T03:06:51;42.42;38.95;47.06;;
46584;Laerm;32309;48.858;8.252;2023-03-20T03:09:00;42.76;38.95;49.82;;
46584;Laerm;32309;48.858;8.252;2023-03-20T03:11:05;45.65;41.06;55.01;;
46584;Laerm;32309;48.858;8.252;2023-03-20T03:13:11;42.47;39.92;45.20;;
46584;Laerm;32309;48.858;8.252;2023-03-20T03:15:31;42.33;39.46;45.54;;
46584;Laerm;32309;48.858;8.252;2023-03-20T03:17:35;42.77;40.53;45.45;;
46584;Laerm;32309;48.858;8.252;2023-03-20T03:21:40;42.79;40.62;45.01;;
46584;Laerm;32309;48.858;8.252;2023-03-20T03:25:45;43.03;39.81;55.93;;
46584;Laerm;32309;48.858;8.252;2023-03-20T03:27:48;42.28;38.74;45.60;;
46584;Laerm;32309;48.858;8.252;2023-03-20T03:29:55;42.24;39.21;45.51;;
46584;Laerm;32309;48.858;8.252;2023-03-20T03:31:57;42.27;39.46;45.72;;
46584;Laerm;32309;48.858;8.252;2023-03-20T03:33:58;42.51;39.70;48.64;;
46584;Laerm;32309;48.858;8.252;2023-03-20T03:36:24;42.75;40.03;45.94;;
46584;Laerm;32309;48.858;8.252;2023-03-20T03:38:37;42.99;40.62;44.83;;
46584;Laerm;32309;48.858;8.252;2023-03-20T03:40:43;43.40;40.53;50.79;;
46584;Laerm;32309;48.858;8.252;2023-03-20T03:42:52;42.71;40.13;47.10;;
46584;Laerm;32309;48.858;8.252;2023-03-20T03:49:06;42.94;40.71;45.99;;
46584;Laerm;32309;48.858;8.252;2023-03-20T03:51:11;46.82;40.33;59.04;;
46584;Laerm;32309;48.858;8.252;2023-03-20T03:55:24;42.56;39.81;45.45;;
46584;Laerm;32309;48.858;8.252;2023-03-20T03:57:33;42.91;39.92;46.05;;
46584;Laerm;32309;48.858;8.252;2023-03-20T03:59:40;42.73;40.13;57.93;;
46584;Laerm;32309;48.858;8.252;2023-03-20T04:01:42;43.35;39.92;61.12;;
46584;Laerm;32309;48.858;8.252;2023-03-20T04:03:54;43.19;40.80;45.72;;
46584;Laerm;32309;48.858;8.252;2023-03-20T04:05:57;43.43;40.71;58.51;;
46584;Laerm;32309;48.858;8.252;2023-03-20T04:08:02;45.64;41.14;59.68;;
46584;Laerm;32309;48.858;8.252;2023-03-20T04:10:04;45.46;41.19;57.54;;
46584;Laerm;32309;48.858;8.252;2023-03-20T04:12:05;45.55;41.46;58.90;;
46584;Laerm;32309;48.858;8.252;2023-03-20T04:14:05;43.91;41.38;46.91;;
46584;Laerm;32309;48.858;8.252;2023-03-20T04:16:06;45.80;42.41;58.06;;
46584;Laerm;32309;48.858;8.252;2023-03-20T04:18:14;46.21;42.09;62.01;;
46584;Laerm;32309;48.858;8.252;2023-03-20T04:20:15;44.40;41.96;50.59;;
46584;Laerm;32309;48.858;8.252;2023-03-20T04:22:16;44.58;41.68;54.83;;
46584;Laerm;32309;48.858;8.252;2023-03-20T04:24:16;44.39;41.38;49.36;;
46584;Laerm;32309;48.858;8.252;2023-03-20T04:26:17;46.86;42.22;60.67;;
46584;Laerm;32309;48.858;8.252;2023-03-20T04:28:17;45.32;42.47;53.29;;
46584;Laerm;32309;48.858;8.252;2023-03-20T04:30:18;46.15;42.93;67.63;;
46584;Laerm;32309;48.858;8.252;2023-03-20T04:34:19;46.35;42.88;58.63;;
46584;Laerm;32309;48.858;8.252;2023-03-20T04:36:19;46.41;43.14;56.53;;
46584;Laerm;32309;48.858;8.252;2023-03-20T04:38:20;47.34;42.53;58.14;;
46584;Laerm;32309;48.858;8.252;2023-03-20T04:40:22;47.54;42.65;65.46;;
46584;Laerm;32309;48.858;8.252;2023-03-20T04:42:22;47.61;42.65;60.40;;
46584;Laerm;32309;48.858;8.252;2023-03-20T04:44:22;48.08;42.13;60.00;;
46584;Laerm;32309;48.858;8.252;2023-03-20T04:46:22;46.84;42.35;62.93;;
46584;Laerm;32309;48.858;8.252;2023-03-20T04:48:23;46.56;42.59;58.36;;
46584;Laerm;32309;48.858;8.252;2023-03-20T04:50:23;46.11;42.47;59.62;;
46584;Laerm;32309;48.858;8.252;2023-03-20T04:52:23;46.34;43.04;60.11;;
46584;Laerm;32309;48.858;8.252;2023-03-20T04:54:24;45.23;42.35;53.35;;
46584;Laerm;32309;48.858;8.252;2023-03-20T04:56:24;45.99;41.96;59.04;;
46584;Laerm;32309;48.858;8.252;2023-03-20T04:58:24;44.97;42.22;54.99;;
46584;Laerm;32309;48.858;8.252;2023-03-20T05:00:25;46.05;41.46;58.98;;
46584;Laerm;32309;48.858;8.252;2023-03-20T05:02:25;45.67;42.65;53.72;;
46584;Laerm;32309;48.858;8.252;2023-03-20T05:04:26;47.19;42.22;56.45;;
46584;Laerm;32309;48.858;8.252;2023-03-20T05:06:27;46.14;42.53;60.69;;
46584;Laerm;32309;48.858;8.252;2023-03-20T05:08:28;45.12;41.96;54.46;;
46584;Laerm;32309;48.858;8.252;2023-03-20T05:12:31;46.14;42.71;56.74;;
46584;Laerm;32309;48.858;8.252;2023-03-20T05:14:31;46.52;42.47;60.53;;
46584;Laerm;32309;48.858;8.252;2023-03-20T05:16:31;49.65;42.47;72.68;;
46584;Laerm;32309;48.858;8.252;2023-03-20T05:18:32;47.20;42.03;61.71;;
46584;Laerm;32309;48.858;8.252;2023-03-20T05:20:32;52.26;42.22;72.21;;
46584;Laerm;32309;48.858;8.252;2023-03-20T05:22:32;50.65;42.19;68.00;;
46584;Laerm;32309;48.858;8.252;2023-03-20T05:24:33;47.04;41.82;67.75;;
46584;Laerm;32309;48.858;8.252;2023-03-20T05:26:35;46.46;41.96;60.45;;
46584;Laerm;32309;48.858;8.252;2023-03-20T05:28:36;45.98;41.82;61.09;;
46584;Laerm;32309;48.858;8.252;2023-03-20T05:30:36;46.08;40.80;58.61;;
46584;Laerm;32309;48.858;8.252;2023-03-20T05:32:37;47.10;41.96;61.11;;
46584;Laerm;32309;48.858;8.252;2023-03-20T05:36:38;51.35;42.22;77.66;;
46584;Laerm;32309;48.858;8.252;2023-03-20T05:40:38;47.87;42.35;62.94;;
46584;Laerm;32309;48.858;8.252;2023-03-20T05:44:41;48.57;42.03;60.90;;
46584;Laerm;32309;48.858;8.252;2023-03-20T05:46:42;48.99;41.89;62.99;;
46584;Laerm;32309;48.858;8.252;2023-03-20T05:48:42;46.25;42.29;58.79;;
46584;Laerm;32309;48.858;8.252;2023-03-20T05:50:42;46.06;41.96;59.36;;
46584;Laerm;32309;48.858;8.252;2023-03-20T05:52:48;48.06;42.35;63.31;;
46584;Laerm;32309;48.858;8.252;2023-03-20T05:54:48;47.02;42.41;61.41;;
46584;Laerm;32309;48.858;8.252;2023-03-20T05:56:48;46.74;41.89;60.50;;
46584;Laerm;32309;48.858;8.252;2023-03-20T05:58:50;46.35;41.82;61.75;;
46584;Laerm;32309;48.858;8.252;2023-03-20T06:00:51;46.35;41.46;57.99;;
46584;Laerm;32309;48.858;8.252;2023-03-20T06:02:54;46.25;41.68;58.07;;
46584;Laerm;32309;48.858;8.252;2023-03-20T06:04:55;44.76;41.94;61.33;;
46584;Laerm;32309;48.858;8.252;2023-03-20T06:06:55;45.05;41.81;58.85;;
46584;Laerm;32309;48.858;8.252;2023-03-20T06:08:55;45.02;41.96;57.66;;
46584;Laerm;32309;48.858;8.252;2023-03-20T06:10:55;48.12;41.61;61.11;;
46584;Laerm;32309;48.858;8.252;2023-03-20T06:12:57;45.14;41.22;57.25;;
46584;Laerm;32309;48.858;8.252;2023-03-20T06:14:59;55.84;42.09;75.83;;
46584;Laerm;32309;48.858;8.252;2023-03-20T06:17:00;57.91;42.41;67.73;;
46584;Laerm;32309;48.858;8.252;2023-03-20T06:19:00;51.37;42.03;75.14;;
46584;Laerm;32309;48.858;8.252;2023-03-20T06:23:01;44.89;41.89;57.31;;
46584;Laerm;32309;48.858;8.252;2023-03-20T06:27:02;46.49;41.81;58.71;;
46584;Laerm;32309;48.858;8.252;2023-03-20T06:31:02;48.28;41.06;66.21;;
46584;Laerm;32309;48.858;8.252;2023-03-20T06:33:05;46.63;41.96;58.98;;
46584;Laerm;32309;48.858;8.252;2023-03-20T06:35:06;47.94;41.53;61.14;;
46584;Laerm;32309;48.858;8.252;2023-03-20T06:39:06;47.61;42.47;60.79;;
46584;Laerm;32309;48.858;8.252;2023-03-20T06:41:07;46.53;42.09;61.65;;
46584;Laerm;32309;48.858;8.252;2023-03-20T06:43:07;46.09;41.75;55.79;;
46584;Laerm;32309;48.858;8.252;2023-03-20T06:45:10;44.59;41.48;53.64;;
46584;Laerm;32309;48.858;8.252;2023-03-20T06:47:11;44.94;42.16;51.28;;
46584;Laerm;32309;48.858;8.252;2023-03-20T06:49:11;45.33;41.75;61.84;;
46584;Laerm;32309;48.858;8.252;2023-03-20T06:51:12;44.71;42.53;50.30;;
46584;Laerm;32309;48.858;8.252;2023-03-20T06:55:12;52.79;42.03;67.63;;
46584;Laerm;32309;48.858;8.252;2023-03-20T06:57:13;45.54;41.75;62.61;;
46584;Laerm;32309;48.858;8.252;2023-03-20T06:59:13;65.07;43.58;80.77;;
46584;Laerm;32309;48.858;8.252;2023-03-20T07:01:15;59.44;43.63;81.79;;
46584;Laerm;32309;48.858;8.252;2023-03-20T07:03:16;46.00;42.35;54.35;;
46584;Laerm;32309;48.858;8.252;2023-03-20T07:05:17;45.88;42.35;53.30;;
46584;Laerm;32309;48.858;8.252;2023-03-20T07:07:17;49.06;42.76;65.11;;
46584;Laerm;32309;48.858;8.252;2023-03-20T07:11:18;45.20;42.76;55.01;;
46584;Laerm;32309;48.858;8.252;2023-03-20T07:13:18;47.11;42.65;62.76;;
46584;Laerm;32309;48.858;8.252;2023-03-20T07:15:20;52.47;43.34;67.15;;
46584;Laerm;32309;48.858;8.252;2023-03-20T07:17:21;51.98;43.44;67.03;;
46584;Laerm;32309;48.858;8.252;2023-03-20T07:19:22;47.77;42.29;67.44;;
46584;Laerm;32309;48.858;8.252;2023-03-20T07:21:22;46.09;42.82;56.22;;
46584;Laerm;32309;48.858;8.252;2023-03-20T07:23:23;46.77;42.22;58.28;;
46584;Laerm;32309;48.858;8.252;2023-03-20T07:25:23;46.07;42.53;54.15;;
46584;Laerm;32309;48.858;8.252;2023-03-20T07:27:24;51.74;42.79;70.17;;
46584;Laerm;32309;48.858;8.252;2023-03-20T07:29:25;45.27;42.03;56.73;;
46584;Laerm;32309;48.858;8.252;2023-03-20T07:31:28;45.88;42.76;59.94;;
46584;Laerm;32309;48.858;8.252;2023-03-20T07:33:30;45.16;41.82;62.91;;
46584;Laerm;32309;48.858;8.252;2023-03-20T07:39:30;44.32;41.68;54.42;;
46584;Laerm;32309;48.858;8.252;2023-03-20T07:41:31;52.01;42.29;68.34;;
46584;Laerm;32309;48.858;8.252;2023-03-20T07:43:31;45.50;42.09;60.66;;
46584;Laerm;32309;48.858;8.252;2023-03-20T07:45:32;50.25;42.76;62.89;;
46584;Laerm;32309;48.858;8.252;2023-03-20T07:47:32;52.85;42.74;65.63;;
46584;Laerm;32309;48.858;8.252;2023-03-20T07:49:33;44.87;42.35;52.72;;
46584;Laerm;32309;48.858;8.252;2023-03-20T07:51:33;45.03;42.03;54.87;;
46584;Laerm;32309;48.858;8.252;2023-03-20T07:53:34;46.33;42.41;54.79;;
46584;Laerm;32309;48.858;8.252;2023-03-20T07:55:34;45.81;42.53;58.29;;
46584;Laerm;32309;48.858;8.252;2023-03-20T07:57:34;45.70;42.09;53.82;;
46584;Laerm;32309;48.858;8.252;2023-03-20T07:59:35;48.76;42.22;68.22;;
46584;Laerm;32309;48.858;8.252;2023-03-20T08:01:35;46.94;42.41;59.29;;
46584;Laerm;32309;48.858;8.252;2023-03-20T08:03:35;45.86;42.65;53.01;;
46584;Laerm;32309;48.858;8.252;2023-03-20T08:07:37;46.14;42.65;53.18;;
46584;Laerm;32309;48.858;8.252;2023-03-20T08:09:38;46.72;42.88;53.58;;
46584;Laerm;32309;48.858;8.252;2023-03-20T08:11:38;45.94;43.29;54.94;;
46584;Laerm;32309;48.858;8.252;2023-03-20T08:13:38;46.94;43.14;55.01;;
46584;Laerm;32309;48.858;8.252;2023-03-20T08:15:39;46.34;43.44;54.38;;
46584;Laerm;32309;48.858;8.252;2023-03-20T08:17:43;46.38;42.76;59.29;;
46584;Laerm;32309;48.858;8.252;2023-03-20T08:19:46;47.26;42.93;57.32;;
46584;Laerm;32309;48.858;8.252;2023-03-20T08:21:46;46.70;43.24;53.08;;
46584;Laerm;32309;48.858;8.252;2023-03-20T08:23:48;48.30;44.23;66.79;;
46584;Laerm;32309;48.858;8.252;2023-03-20T08:25:50;47.26;43.49;60.58;;
46584;Laerm;32309;48.858;8.252;2023-03-20T08:27:51;46.88;43.76;53.94;;
46584;Laerm;32309;48.858;8.252;2023-03-20T08:29:51;48.02;44.03;56.24;;
46584;Laerm;32309;48.858;8.252;2023-03-20T08:31:52;48.27;43.90;67.65;;
46584;Laerm;32309;48.858;8.252;2023-03-20T08:33:54;52.64;43.99;68.17;;
46584;Laerm;32309;48.858;8.252;2023-03-20T08:37:56;45.86;42.82;54.50;;
46584;Laerm;32309;48.858;8.252;2023-03-20T08:39:56;45.92;43.34;51.30;;
46584;Laerm;32309;48.858;8.252;2023-03-20T08:41:56;49.60;43.09;73.93;;
46584;Laerm;32309;48.858;8.252;2023-03-20T08:43:57;46.35;42.41;54.87;;
46584;Laerm;32309;48.858;8.252;2023-03-20T08:45:57;46.37;42.65;56.21;;
46584;Laerm;32309;48.858;8.252;2023-03-20T08:47:57;50.33;42.22;73.45;;
46584;Laerm;32309;48.858;8.252;2023-03-20T08:49:58;51.22;42.47;80.46;;
46584;Laerm;32309;48.858;8.252;2023-03-20T08:51:59;46.84;43.14;72.45;;
46584;Laerm;32309;48.858;8.252;2023-03-20T08:53:59;46.52;43.39;61.84;;
46584;Laerm;32309;48.858;8.252;2023-03-20T08:55:59;47.09;43.04;57.36;;
46584;Laerm;32309;48.858;8.252;2023-03-20T08:58:00;48.35;44.07;70.43;;
46584;Laerm;32309;48.858;8.252;2023-03-20T09:00:01;67.58;44.76;80.74;;
46584;Laerm;32309;48.858;8.252;2023-03-20T09:02:01;63.32;43.14;83.85;;
46584;Laerm;32309;48.858;8.252;2023-03-20T09:04:01;63.32;43.14;83.85;;
46584;Laerm;32309;48.858;8.252;2023-03-20T09:06:05;52.08;43.58;68.42;;
46584;Laerm;32309;48.858;8.252;2023-03-20T09:08:06;52.57;43.77;71.16;;
46584;Laerm;32309;48.858;8.252;2023-03-20T09:10:07;48.81;42.82;74.07;;
46584;Laerm;32309;48.858;8.252;2023-03-20T09:12:07;46.77;42.93;61.41;;
46584;Laerm;32309;48.858;8.252;2023-03-20T09:16:10;52.76;42.47;67.84;;
46584;Laerm;32309;48.858;8.252;2023-03-20T09:18:10;53.02;43.77;67.30;;
46584;Laerm;32309;48.858;8.252;2023-03-20T09:20:11;51.60;44.11;67.71;;
46584;Laerm;32309;48.858;8.252;2023-03-20T09:22:12;48.17;44.69;60.82;;
46584;Laerm;32309;48.858;8.252;2023-03-20T09:24:13;55.16;45.89;72.17;;
46584;Laerm;32309;48.858;8.252;2023-03-20T09:26:14;47.77;43.81;54.40;;
46584;Laerm;32309;48.858;8.252;2023-03-20T09:28:14;49.83;44.73;70.11;;
46584;Laerm;32309;48.858;8.252;2023-03-20T09:30:14;48.91;45.01;59.76;;
46584;Laerm;32309;48.858;8.252;2023-03-20T09:34:15;49.50;43.58;62.60;;
46584;Laerm;32309;48.858;8.252;2023-03-20T09:36:16;48.54;44.76;62.30;;
46584;Laerm;32309;48.858;8.252;2023-03-20T09:38:16;51.61;44.62;64.49;;
46584;Laerm;32309;48.858;8.252;2023-03-20T09:40:30;48.06;44.07;58.96;;
46584;Laerm;32309;48.858;8.252;2023-03-20T09:42:57;50.30;45.80;60.70;;
46584;Laerm;32309;48.858;8.252;2023-03-20T09:54:34;47.14;43.72;61.91;;
46584;Laerm;32309;48.858;8.252;2023-03-20T09:56:35;49.48;43.86;69.93;;
46584;Laerm;32309;48.858;8.252;2023-03-20T09:58:37;49.34;45.60;55.24;;
46584;Laerm;32309;48.858;8.252;2023-03-20T10:00:42;48.76;45.27;66.48;;
46584;Laerm;32309;48.858;8.252;2023-03-20T10:04:53;50.19;44.51;70.73;;
46584;Laerm;32309;48.858;8.252;2023-03-20T10:06:54;47.99;44.47;53.31;;
46584;Laerm;32309;48.858;8.252;2023-03-20T10:08:55;51.20;44.80;71.23;;
46584;Laerm;32309;48.858;8.252;2023-03-20T10:13:38;48.79;44.94;56.57;;
46584;Laerm;32309;48.858;8.252;2023-03-20T10:15:58;50.59;45.36;70.70;;
46584;Laerm;32309;48.858;8.252;2023-03-20T10:18:15;50.33;45.14;73.54;;
46584;Laerm;32309;48.858;8.252;2023-03-20T10:22:34;46.52;42.88;57.08;;
46584;Laerm;32309;48.858;8.252;2023-03-20T10:24:40;45.54;42.35;55.66;;
46584;Laerm;32309;48.858;8.252;2023-03-20T10:35:26;47.33;41.96;63.80;;
46584;Laerm;32309;48.858;8.252;2023-03-20T10:39:54;45.19;42.71;51.80;;
46584;Laerm;32309;48.858;8.252;2023-03-20T10:42:01;45.08;41.96;55.17;;
46584;Laerm;32309;48.858;8.252;2023-03-20T10:44:04;45.25;41.68;57.00;;
46584;Laerm;32309;48.858;8.252;2023-03-20T10:46:12;44.73;41.53;56.82;;
46584;Laerm;32309;48.858;8.252;2023-03-20T10:48:22;46.63;41.03;62.39;;
46584;Laerm;32309;48.858;8.252;2023-03-20T10:51:00;43.82;39.46;48.77;;
46584;Laerm;32309;48.858;8.252;2023-03-20T10:53:05;43.75;41.06;57.15;;
46584;Laerm;32309;48.858;8.252;2023-03-20T10:55:11;46.55;40.80;68.27;;
46584;Laerm;32309;48.858;8.252;2023-03-20T10:57:22;44.17;41.14;63.18;;
46584;Laerm;32309;48.858;8.252;2023-03-20T10:59:36;44.19;41.53;55.86;;
46584;Laerm;32309;48.858;8.252;2023-03-20T11:01:38;44.82;40.80;53.44;;
46584;Laerm;32309;48.858;8.252;2023-03-20T11:03:38;48.70;42.29;72.13;;
46584;Laerm;32309;48.858;8.252;2023-03-20T11:07:41;46.68;41.46;62.44;;
46584;Laerm;32309;48.858;8.252;2023-03-20T11:09:41;46.79;41.82;60.10;;
46584;Laerm;32309;48.858;8.252;2023-03-20T11:11:45;45.62;41.88;65.11;;
46584;Laerm;32309;48.858;8.252;2023-03-20T11:13:45;44.20;42.09;54.57;;
46584;Laerm;32309;48.858;8.252;2023-03-20T11:15:51;44.64;41.46;61.01;;
46584;Laerm;32309;48.858;8.252;2023-03-20T11:18:06;45.64;41.22;56.89;;
46584;Laerm;32309;48.858;8.252;2023-03-20T11:20:13;45.87;41.96;62.67;;
46584;Laerm;32309;48.858;8.252;2023-03-20T11:22:27;45.09;41.96;51.89;;
46584;Laerm;32309;48.858;8.252;2023-03-20T11:24:43;47.23;42.93;62.52;;
46584;Laerm;32309;48.858;8.252;2023-03-20T11:26:43;46.75;42.82;65.07;;
46584;Laerm;32309;48.858;8.252;2023-03-20T11:28:49;46.23;42.29;64.95;;
46584;Laerm;32309;48.858;8.252;2023-03-20T11:30:59;45.81;42.16;54.51;;
46584;Laerm;32309;48.858;8.252;2023-03-20T11:37:32;49.96;44.65;60.29;;
46584;Laerm;32309;48.858;8.252;2023-03-20T11:39:33;49.64;42.82;63.82;;
46584;Laerm;32309;48.858;8.252;2023-03-20T11:43:43;45.61;42.03;64.34;;
46584;Laerm;32309;48.858;8.252;2023-03-20T11:45:48;50.56;42.41;65.06;;
46584;Laerm;32309;48.858;8.252;2023-03-20T11:47:52;45.80;42.59;53.86;;
46584;Laerm;32309;48.858;8.252;2023-03-20T11:49:58;45.82;42.29;61.36;;
46584;Laerm;32309;48.858;8.252;2023-03-20T11:52:13;46.50;43.04;53.63;;
46584;Laerm;32309;48.858;8.252;2023-03-20T11:54:22;49.01;43.39;62.26;;
46584;Laerm;32309;48.858;8.252;2023-03-20T11:56:31;51.62;44.23;78.93;;
46584;Laerm;32309;48.858;8.252;2023-03-20T11:58:33;48.03;43.99;53.93;;
46584;Laerm;32309;48.858;8.252;2023-03-20T12:00:37;48.44;43.89;61.35;;
46584;Laerm;32309;48.858;8.252;2023-03-20T12:02:41;50.15;43.44;72.01;;
46584;Laerm;32309;48.858;8.252;2023-03-20T12:04:42;49.39;45.01;69.10;;
46584;Laerm;32309;48.858;8.252;2023-03-20T12:09:01;48.50;44.19;61.66;;
46584;Laerm;32309;48.858;8.252;2023-03-20T12:11:16;49.94;44.58;66.34;;
46584;Laerm;32309;48.858;8.252;2023-03-20T12:15:24;48.45;43.99;57.58;;
46584;Laerm;32309;48.858;8.252;2023-03-20T12:17:37;60.49;43.44;81.51;;
46584;Laerm;32309;48.858;8.252;2023-03-20T12:19:41;57.31;44.54;79.40;;
46584;Laerm;32309;48.858;8.252;2023-03-20T12:21:45;47.25;42.35;59.20;;
46584;Laerm;32309;48.858;8.252;2023-03-20T12:23:51;46.93;43.54;55.02;;
46584;Laerm;32309;48.858;8.252;2023-03-20T12:26:10;46.95;42.16;67.14;;
46584;Laerm;32309;48.858;8.252;2023-03-20T12:28:19;50.74;42.76;70.22;;
46584;Laerm;32309;48.858;8.252;2023-03-20T12:37:20;46.11;42.35;56.37;;
46584;Laerm;32309;48.858;8.252;2023-03-20T12:39:23;49.33;42.35;68.39;;
46584;Laerm;32309;48.858;8.252;2023-03-20T12:46:47;47.56;43.34;65.17;;
46584;Laerm;32309;48.858;8.252;2023-03-20T12:48:56;56.08;43.63;79.08;;
46584;Laerm;32309;48.858;8.252;2023-03-20T12:51:14;51.95;43.77;72.75;;
46584;Laerm;32309;48.858;8.252;2023-03-20T12:58:26;46.71;41.96;56.29;;
46584;Laerm;32309;48.858;8.252;2023-03-20T13:00:33;47.60;42.71;55.17;;
46584;Laerm;32309;48.858;8.252;2023-03-20T13:02:44;47.72;44.03;53.50;;
46584;Laerm;32309;48.858;8.252;2023-03-20T13:06:55;46.45;42.88;58.90;;
46584;Laerm;32309;48.858;8.252;2023-03-20T13:16:08;47.94;43.77;58.13;;
46584;Laerm;32309;48.858;8.252;2023-03-20T13:22:54;50.21;44.62;65.23;;
46584;Laerm;32309;48.858;8.252;2023-03-20T13:25:28;47.31;43.34;53.69;;
46584;Laerm;32309;48.858;8.252;2023-03-20T13:27:49;46.96;43.34;56.40;;
46584;Laerm;32309;48.858;8.252;2023-03-20T13:32:54;49.47;42.82;68.20;;
46584;Laerm;32309;48.858;8.252;2023-03-20T13:37:16;52.74;42.09;72.21;;
46584;Laerm;32309;48.858;8.252;2023-03-20T13:39:26;51.63;43.19;76.78;;
46584;Laerm;32309;48.858;8.252;2023-03-20T13:41:28;49.61;42.71;66.51;;
46584;Laerm;32309;48.858;8.252;2023-03-20T13:43:47;53.55;44.58;73.18;;
46584;Laerm;32309;48.858;8.252;2023-03-20T13:46:01;53.58;44.49;73.74;;
46584;Laerm;32309;48.858;8.252;2023-03-20T13:52:45;51.61;44.73;69.99;;
46584;Laerm;32309;48.858;8.252;2023-03-20T13:59:55;50.38;43.81;67.45;;
46584;Laerm;32309;48.858;8.252;2023-03-20T14:04:16;45.94;42.59;63.57;;
46584;Laerm;32309;48.858;8.252;2023-03-20T14:08:32;49.49;44.07;56.75;;
46584;Laerm;32309;48.858;8.252;2023-03-20T14:10:35;46.34;42.35;56.74;;
46584;Laerm;32309;48.858;8.252;2023-03-20T14:12:35;46.83;42.35;57.55;;
46584;Laerm;32309;48.858;8.252;2023-03-20T14:14:56;47.78;44.03;61.79;;
46584;Laerm;32309;48.858;8.252;2023-03-20T14:17:01;48.23;44.31;60.24;;
46584;Laerm;32309;48.858;8.252;2023-03-20T14:19:19;49.94;43.68;69.08;;
46584;Laerm;32309;48.858;8.252;2023-03-20T14:21:22;49.76;44.94;60.33;;
46584;Laerm;32309;48.858;8.252;2023-03-20T14:23:35;50.30;45.04;64.23;;
46584;Laerm;32309;48.858;8.252;2023-03-20T14:25:40;48.43;43.24;57.77;;
46584;Laerm;32309;48.858;8.252;2023-03-20T14:28:05;50.22;44.27;74.76;;
46584;Laerm;32309;48.858;8.252;2023-03-20T14:32:31;54.05;46.38;66.34;;
46584;Laerm;32309;48.858;8.252;2023-03-20T14:34:50;57.55;46.10;73.56;;
46584;Laerm;32309;48.858;8.252;2023-03-20T14:36:58;59.43;45.63;75.75;;
46584;Laerm;32309;48.858;8.252;2023-03-20T14:46:02;52.82;43.29;65.91;;
46584;Laerm;32309;48.858;8.252;2023-03-20T14:50:24;49.36;44.31;61.12;;
46584;Laerm;32309;48.858;8.252;2023-03-20T14:57:32;48.38;43.72;58.84;;
46584;Laerm;32309;48.858;8.252;2023-03-20T14:59:32;46.78;43.49;57.05;;